createdAt,value
2024-02-19T00:00:25.267Z,58.37
2024-02-19T00:01:25.423Z,57.04
2024-02-19T00:02:25.399Z,57.17
2024-02-19T00:03:25.554Z,58.08
2024-02-19T00:04:25.562Z,56.96
2024-02-19T00:05:25.587Z,58.05
2024-02-19T00:06:25.609Z,58.15
2024-02-19T00:07:25.783Z,57.45
2024-02-19T00:08:25.734Z,58.92
2024-02-19T00:09:25.804Z,57.36
2024-02-19T00:10:25.886Z,58.65
2024-02-19T00:11:25.998Z,60.14
2024-02-19T00:12:26.146Z,59.18
2024-02-19T00:13:26.119Z,58.08
2024-02-19T00:14:26.112Z,59.43
2024-02-19T00:15:26.171Z,60.33
2024-02-19T00:16:26.237Z,58.14
2024-02-19T00:17:26.320Z,57.91
2024-02-19T00:18:26.436Z,58.86
2024-02-19T00:19:26.601Z,59.06
2024-02-19T00:20:26.499Z,58.65
2024-02-19T00:21:26.571Z,59.09
2024-02-19T00:22:26.669Z,60.88
2024-02-19T00:23:26.709Z,58.81
2024-02-19T00:24:26.775Z,58.66
2024-02-19T00:25:26.868Z,60.47
2024-02-19T00:26:26.924Z,58.49
2024-02-19T00:27:32.032Z,59.29
2024-02-19T00:28:26.992Z,59.43
2024-02-19T00:29:27.014Z,59.75
2024-02-19T00:30:27.005Z,59.75
2024-02-19T00:31:27.010Z,60.19
2024-02-19T00:32:27.045Z,59.17
2024-02-19T00:33:27.156Z,63.01
2024-02-19T00:34:27.057Z,60.99
2024-02-19T00:35:27.114Z,59.23
2024-02-19T00:36:27.180Z,59.28
2024-02-19T00:37:27.243Z,59.38
2024-02-19T00:38:27.297Z,58.51
2024-02-19T00:39:27.383Z,59.84
2024-02-19T00:40:27.488Z,59.82
2024-02-19T00:41:27.517Z,60.38
2024-02-19T00:42:27.606Z,59.79
2024-02-19T00:43:27.649Z,63.16
2024-02-19T00:44:27.711Z,61.43
2024-02-19T00:45:27.800Z,61.99
2024-02-19T00:46:27.848Z,61.21
2024-02-19T00:47:27.928Z,62.01
2024-02-19T00:48:27.964Z,59.47
2024-02-19T00:49:28.148Z,61.58
2024-02-19T00:50:28.070Z,60.84
2024-02-19T00:51:28.148Z,61.30
2024-02-19T00:52:28.187Z,61.90
2024-02-19T00:53:28.243Z,59.98
2024-02-19T00:54:28.287Z,59.93
2024-02-19T00:55:28.370Z,59.94
2024-02-19T00:56:28.415Z,60.28
2024-02-19T00:57:28.483Z,62.61
2024-02-19T00:58:28.519Z,61.94
2024-02-19T00:59:28.551Z,60.56
2024-02-19T01:00:28.554Z,60.72
2024-02-19T01:01:28.646Z,60.58
2024-02-19T01:02:28.589Z,61.73
2024-02-19T01:03:28.643Z,60.10
2024-02-19T01:04:28.701Z,60.78
2024-02-19T01:05:28.681Z,61.12
2024-02-19T01:06:28.589Z,62.22
2024-02-19T01:07:28.681Z,61.75
2024-02-19T01:08:28.613Z,60.66
2024-02-19T01:09:28.634Z,58.38
2024-02-19T01:10:28.641Z,60.34
2024-02-19T01:11:28.689Z,58.87
2024-02-19T01:12:34.346Z,59.14
2024-02-19T01:13:28.671Z,59.28
2024-02-19T01:14:28.639Z,59.52
2024-02-19T01:15:28.652Z,59.99
2024-02-19T01:16:28.656Z,59.83
2024-02-19T01:17:28.698Z,58.68
2024-02-19T01:18:28.686Z,60.15
2024-02-19T01:19:28.728Z,59.12
2024-02-19T01:20:28.682Z,60.19
2024-02-19T01:21:28.648Z,57.48
2024-02-19T01:22:28.662Z,58.61
2024-02-19T01:23:28.665Z,59.40
2024-02-19T01:24:28.659Z,58.66
2024-02-19T01:25:28.651Z,57.61
2024-02-19T01:26:28.647Z,56.95
2024-02-19T01:27:28.656Z,58.23
2024-02-19T01:28:28.686Z,57.45
2024-02-19T01:29:28.672Z,57.64
2024-02-19T01:30:28.649Z,57.71
2024-02-19T01:31:28.682Z,57.75
2024-02-19T01:32:28.708Z,57.38
2024-02-19T01:33:28.710Z,55.16
2024-02-19T01:34:28.762Z,57.50
2024-02-19T01:35:28.676Z,57.80
2024-02-19T01:36:28.652Z,59.50
2024-02-19T01:37:35.044Z,57.33
2024-02-19T01:38:28.657Z,57.50
2024-02-19T01:39:28.670Z,57.61
2024-02-19T01:40:28.715Z,58.80
2024-02-19T01:41:28.675Z,56.98
2024-02-19T01:42:28.653Z,57.17
2024-02-19T01:43:28.682Z,58.61
2024-02-19T01:44:28.674Z,59.56
2024-02-19T01:45:28.673Z,58.32
2024-02-19T01:46:28.690Z,58.96
2024-02-19T01:47:28.690Z,58.31
2024-02-19T01:48:28.705Z,57.85
2024-02-19T01:49:28.695Z,58.96
2024-02-19T01:50:28.677Z,56.88
2024-02-19T01:51:28.687Z,59.04
2024-02-19T01:52:28.685Z,55.19
2024-02-19T01:53:28.704Z,57.01
2024-02-19T01:54:28.693Z,56.54
2024-02-19T01:55:28.742Z,55.23
2024-02-19T01:56:28.687Z,56.70
2024-02-19T01:57:28.693Z,56.48
2024-02-19T01:58:28.702Z,58.07
2024-02-19T01:59:28.710Z,56.06
2024-02-19T02:00:28.725Z,56.96
2024-02-19T02:01:28.769Z,58.39
2024-02-19T02:02:28.727Z,56.20
2024-02-19T02:03:28.700Z,55.76
2024-02-19T02:04:28.724Z,57.20
2024-02-19T02:05:28.709Z,57.35
2024-02-19T02:06:28.731Z,55.31
2024-02-19T02:07:28.701Z,56.66
2024-02-19T02:08:28.701Z,56.29
2024-02-19T02:09:28.710Z,56.40
2024-02-19T02:10:28.743Z,56.42
2024-02-19T02:11:28.777Z,56.47
2024-02-19T02:12:28.780Z,56.67
2024-02-19T02:13:28.868Z,56.03
2024-02-19T02:14:28.896Z,55.79
2024-02-19T02:15:28.958Z,55.57
2024-02-19T02:16:29.020Z,54.81
2024-02-19T02:17:29.124Z,55.54
2024-02-19T02:18:29.200Z,54.58
2024-02-19T02:19:29.303Z,56.19
2024-02-19T02:20:29.231Z,55.47
2024-02-19T02:21:29.273Z,56.12
2024-02-19T02:22:29.315Z,52.75
2024-02-19T02:23:29.369Z,53.91
2024-02-19T02:24:30.411Z,55.55
2024-02-19T02:25:29.521Z,55.02
2024-02-19T02:26:29.495Z,57.12
2024-02-19T02:27:29.576Z,54.45
2024-02-19T02:28:29.575Z,55.44
2024-02-19T02:29:29.630Z,56.34
2024-02-19T02:30:29.654Z,53.31
2024-02-19T02:31:29.710Z,53.42
2024-02-19T02:32:29.796Z,54.59
2024-02-19T02:33:29.877Z,56.05
2024-02-19T02:34:29.916Z,57.18
2024-02-19T02:35:29.881Z,53.66
2024-02-19T02:36:29.921Z,55.86
2024-02-19T02:37:29.978Z,55.68
2024-02-19T02:38:30.034Z,55.75
2024-02-19T02:39:30.069Z,55.47
2024-02-19T02:40:30.112Z,55.58
2024-02-19T02:41:30.146Z,54.32
2024-02-19T02:42:30.187Z,54.04
2024-02-19T02:43:30.248Z,55.62
2024-02-19T02:44:30.302Z,54.96
2024-02-19T02:45:30.358Z,54.03
2024-02-19T02:46:30.431Z,53.56
2024-02-19T02:47:30.467Z,54.33
2024-02-19T02:48:30.579Z,54.03
2024-02-19T02:49:30.667Z,56.04
2024-02-19T02:50:30.603Z,55.08
2024-02-19T02:51:30.658Z,52.83
2024-02-19T02:52:30.707Z,53.93
2024-02-19T02:53:30.770Z,55.31
2024-02-19T02:54:30.795Z,55.07
2024-02-19T02:55:30.859Z,55.16
2024-02-19T02:56:30.913Z,55.31
2024-02-19T02:57:30.956Z,57.02
2024-02-19T02:58:31.012Z,55.08
2024-02-19T02:59:31.076Z,56.79
2024-02-19T03:00:31.106Z,53.74
2024-02-19T03:01:31.398Z,56.15
2024-02-19T03:02:31.215Z,54.99
2024-02-19T03:03:31.300Z,54.50
2024-02-19T03:04:31.449Z,52.98
2024-02-19T03:05:31.368Z,56.29
2024-02-19T03:06:31.453Z,54.21
2024-02-19T03:07:31.569Z,55.40
2024-02-19T03:08:31.563Z,54.66
2024-02-19T03:09:31.574Z,54.93
2024-02-19T03:10:31.643Z,52.03
2024-02-19T03:11:31.743Z,54.51
2024-02-19T03:12:31.737Z,52.79
2024-02-19T03:13:31.797Z,52.26
2024-02-19T03:14:31.851Z,53.21
2024-02-19T03:15:31.892Z,54.66
2024-02-19T03:16:31.941Z,52.90
2024-02-19T03:17:32.036Z,54.98
2024-02-19T03:18:32.136Z,53.04
2024-02-19T03:19:32.158Z,54.94
2024-02-19T03:20:32.235Z,54.57
2024-02-19T03:21:32.194Z,54.23
2024-02-19T03:22:32.250Z,53.68
2024-02-19T03:23:32.314Z,54.75
2024-02-19T03:24:32.363Z,52.30
2024-02-19T03:25:32.401Z,55.85
2024-02-19T03:26:38.141Z,53.84
2024-02-19T03:27:33.465Z,53.97
2024-02-19T03:28:32.461Z,54.09
2024-02-19T03:29:32.464Z,54.13
2024-02-19T03:30:32.471Z,54.97
2024-02-19T03:31:32.479Z,55.56
2024-02-19T03:32:32.521Z,54.36
2024-02-19T03:33:32.514Z,55.69
2024-02-19T03:34:32.528Z,54.49
2024-02-19T03:35:32.469Z,53.78
2024-02-19T03:36:32.478Z,53.14
2024-02-19T03:37:32.541Z,54.17
2024-02-19T03:38:32.552Z,52.71
2024-02-19T03:39:32.624Z,52.72
2024-02-19T03:40:32.669Z,53.53
2024-02-19T03:41:32.697Z,55.37
2024-02-19T03:42:32.760Z,53.85
2024-02-19T03:43:32.804Z,55.40
2024-02-19T03:44:32.871Z,54.16
2024-02-19T03:45:32.912Z,53.96
2024-02-19T03:46:32.965Z,53.89
2024-02-19T03:47:33.019Z,52.95
2024-02-19T03:48:33.139Z,53.20
2024-02-19T03:49:33.207Z,52.22
2024-02-19T03:50:33.179Z,53.55
2024-02-19T03:51:33.232Z,53.64
2024-02-19T03:52:33.281Z,53.33
2024-02-19T03:53:33.352Z,53.23
2024-02-19T03:54:33.440Z,53.04
2024-02-19T03:55:33.506Z,52.51
2024-02-19T03:56:33.502Z,53.32
2024-02-19T03:57:33.531Z,54.63
2024-02-19T03:58:33.577Z,53.53
2024-02-19T03:59:33.617Z,54.56
2024-02-19T04:00:33.665Z,52.13
2024-02-19T04:01:33.867Z,53.89
2024-02-19T04:02:33.757Z,54.43
2024-02-19T04:03:33.848Z,53.45
2024-02-19T04:04:33.943Z,54.33
2024-02-19T04:05:33.865Z,52.10
2024-02-19T04:06:33.942Z,53.87
2024-02-19T04:07:34.000Z,54.14
2024-02-19T04:08:34.027Z,53.49
2024-02-19T04:09:34.017Z,52.08
2024-02-19T04:10:34.078Z,52.83
2024-02-19T04:11:34.160Z,55.65
2024-02-19T04:12:34.187Z,54.14
2024-02-19T04:13:34.232Z,54.16
2024-02-19T04:14:34.276Z,53.32
2024-02-19T04:15:34.339Z,53.41
2024-02-19T04:16:34.354Z,53.21
2024-02-19T04:17:34.479Z,51.95
2024-02-19T04:18:34.500Z,52.91
2024-02-19T04:19:34.540Z,53.30
2024-02-19T04:20:34.530Z,54.98
2024-02-19T04:21:34.587Z,54.96
2024-02-19T04:22:34.642Z,54.55
2024-02-19T04:23:34.667Z,52.92
2024-02-19T04:24:34.806Z,51.91
2024-02-19T04:25:34.753Z,52.79
2024-02-19T04:26:34.840Z,53.54
2024-02-19T04:27:34.862Z,53.63
2024-02-19T04:28:34.909Z,54.10
2024-02-19T04:29:34.958Z,53.74
2024-02-19T04:30:35.018Z,55.32
2024-02-19T04:31:35.070Z,54.52
2024-02-19T04:32:35.180Z,53.63
2024-02-19T04:33:35.251Z,53.39
2024-02-19T04:34:39.336Z,52.25
2024-02-19T04:35:36.229Z,52.44
2024-02-19T04:36:35.218Z,52.77
2024-02-19T04:37:35.217Z,53.58
2024-02-19T04:38:35.233Z,53.45
2024-02-19T04:39:35.223Z,54.63
2024-02-19T04:40:35.229Z,54.50
2024-02-19T04:41:35.243Z,53.75
2024-02-19T04:42:35.241Z,52.26
2024-02-19T04:43:35.246Z,54.78
2024-02-19T04:44:35.267Z,55.09
2024-02-19T04:45:35.287Z,54.34
2024-02-19T04:46:42.608Z,50.00
2024-02-19T04:47:42.670Z,50.00
2024-02-19T04:48:42.706Z,50.00
2024-02-19T04:49:42.672Z,50.00
2024-02-19T04:50:42.594Z,50.00
2024-02-19T04:51:42.614Z,50.00
2024-02-19T04:52:42.643Z,50.00
2024-02-19T04:53:42.627Z,50.44
2024-02-19T04:54:42.712Z,50.68
2024-02-19T04:55:42.603Z,52.12
2024-02-19T04:56:42.625Z,52.21
2024-02-19T04:57:42.638Z,52.23
2024-02-19T04:58:42.608Z,51.59
2024-02-19T04:59:42.622Z,52.36
2024-02-19T05:00:42.725Z,51.49
2024-02-19T05:01:42.661Z,50.00
2024-02-19T05:02:42.602Z,52.25
2024-02-19T05:03:42.656Z,51.15
2024-02-19T05:04:42.753Z,53.35
2024-02-19T05:05:42.689Z,53.78
2024-02-19T05:06:42.684Z,52.50
2024-02-19T05:07:42.611Z,52.49
2024-02-19T05:08:42.617Z,53.51
2024-02-19T05:09:42.636Z,53.22
2024-02-19T05:10:42.682Z,52.05
2024-02-19T05:11:42.711Z,53.14
2024-02-19T05:12:42.620Z,50.67
2024-02-19T05:13:42.622Z,53.49
2024-02-19T05:14:42.630Z,54.68
2024-02-19T05:15:42.642Z,51.92
2024-02-19T05:16:42.624Z,52.84
2024-02-19T05:17:42.684Z,53.28
2024-02-19T05:18:42.784Z,52.34
2024-02-19T05:19:43.141Z,52.70
2024-02-19T05:20:42.827Z,52.53
2024-02-19T05:21:42.934Z,51.52
2024-02-19T05:22:42.928Z,52.23
2024-02-19T05:23:43.021Z,51.79
2024-02-19T05:24:43.121Z,53.33
2024-02-19T05:25:43.135Z,54.02
2024-02-19T05:26:43.193Z,53.86
2024-02-19T05:27:43.357Z,53.38
2024-02-19T05:28:43.345Z,52.07
2024-02-19T05:29:43.419Z,53.90
2024-02-19T05:30:43.529Z,51.70
2024-02-19T05:31:43.546Z,51.11
2024-02-19T05:32:43.608Z,52.93
2024-02-19T05:33:43.753Z,54.12
2024-02-19T05:34:43.766Z,55.10
2024-02-19T05:35:43.944Z,53.11
2024-02-19T05:36:43.907Z,54.10
2024-02-19T05:37:43.956Z,54.33
2024-02-19T05:38:44.029Z,54.27
2024-02-19T05:39:44.166Z,54.23
2024-02-19T05:40:44.160Z,52.02
2024-02-19T05:41:44.260Z,54.49
2024-02-19T05:42:44.363Z,54.29
2024-02-19T05:43:44.377Z,53.74
2024-02-19T05:44:44.461Z,52.84
2024-02-19T05:45:44.589Z,52.16
2024-02-19T05:46:44.704Z,52.83
2024-02-19T05:47:44.839Z,53.69
2024-02-19T05:48:44.782Z,56.79
2024-02-19T05:49:46.344Z,53.99
2024-02-19T05:50:44.830Z,56.02
2024-02-19T05:51:44.918Z,54.28
2024-02-19T05:52:44.942Z,54.71
2024-02-19T05:53:45.079Z,54.58
2024-02-19T05:54:45.147Z,54.19
2024-02-19T05:55:45.145Z,54.43
2024-02-19T05:56:45.200Z,53.11
2024-02-19T05:57:45.288Z,54.17
2024-02-19T05:58:45.326Z,52.92
2024-02-19T05:59:45.399Z,53.94
2024-02-19T06:00:45.524Z,52.71
2024-02-19T06:01:45.732Z,53.04
2024-02-19T06:02:45.690Z,53.99
2024-02-19T06:03:45.672Z,54.93
2024-02-19T06:04:45.785Z,54.46
2024-02-19T06:05:45.797Z,53.61
2024-02-19T06:06:45.914Z,55.21
2024-02-19T06:07:45.905Z,53.89
2024-02-19T06:08:45.931Z,54.09
2024-02-19T06:09:46.085Z,52.64
2024-02-19T06:10:46.094Z,54.62
2024-02-19T06:11:46.176Z,53.52
2024-02-19T06:12:46.269Z,55.80
2024-02-19T06:13:46.307Z,54.13
2024-02-19T06:14:46.365Z,56.63
2024-02-19T06:15:46.564Z,53.98
2024-02-19T06:16:46.522Z,53.91
2024-02-19T06:17:46.621Z,54.08
2024-02-19T06:18:46.967Z,53.26
2024-02-19T06:19:46.794Z,56.32
2024-02-19T06:20:46.806Z,56.69
2024-02-19T06:21:46.898Z,55.27
2024-02-19T06:22:46.949Z,55.16
2024-02-19T06:23:47.025Z,54.46
2024-02-19T06:24:47.138Z,54.38
2024-02-19T06:25:47.161Z,54.99
2024-02-19T06:26:47.219Z,55.03
2024-02-19T06:27:47.306Z,56.39
2024-02-19T06:28:47.355Z,55.99
2024-02-19T06:29:47.457Z,57.58
2024-02-19T06:30:47.561Z,57.23
2024-02-19T06:31:47.593Z,56.34
2024-02-19T06:32:47.641Z,59.39
2024-02-19T06:33:47.830Z,59.14
2024-02-19T06:34:47.926Z,61.47
2024-02-19T06:35:47.850Z,64.05
2024-02-19T06:36:47.990Z,65.75
2024-02-19T06:37:47.974Z,68.53
2024-02-19T06:38:48.019Z,70.77
2024-02-19T06:39:48.110Z,68.67
2024-02-19T06:40:48.148Z,72.63
2024-02-19T06:41:48.229Z,74.83
2024-02-19T06:42:49.215Z,77.84
2024-02-19T06:43:48.374Z,79.27
2024-02-19T06:44:48.427Z,78.95
2024-02-19T06:45:48.535Z,82.02
2024-02-19T06:46:48.574Z,83.66
2024-02-19T06:47:48.706Z,86.50
2024-02-19T06:48:50.724Z,88.03
2024-02-19T06:49:48.874Z,90.00
2024-02-19T06:50:48.815Z,91.77
2024-02-19T06:51:48.902Z,95.05
2024-02-19T06:52:48.872Z,100.22
2024-02-19T06:53:48.948Z,102.64
2024-02-19T06:54:49.036Z,104.66
2024-02-19T06:55:49.057Z,108.96
2024-02-19T06:56:49.129Z,112.93
2024-02-19T06:57:49.260Z,118.77
2024-02-19T06:58:49.254Z,120.10
2024-02-19T06:59:49.359Z,123.87
2024-02-19T07:00:49.471Z,126.46
2024-02-19T07:01:49.536Z,132.96
2024-02-19T07:02:49.581Z,134.67
2024-02-19T07:03:49.773Z,138.21
2024-02-19T07:04:49.677Z,142.09
2024-02-19T07:05:49.774Z,146.08
2024-02-19T07:06:49.815Z,151.37
2024-02-19T07:07:49.832Z,156.33
2024-02-19T07:08:49.884Z,161.25
2024-02-19T07:09:49.902Z,169.31
2024-02-19T07:10:49.943Z,172.73
2024-02-19T07:11:50.054Z,178.57
2024-02-19T07:12:50.003Z,181.82
2024-02-19T07:13:50.102Z,188.16
2024-02-19T07:14:50.070Z,191.49
2024-02-19T07:15:50.121Z,193.30
2024-02-19T07:16:50.128Z,198.52
2024-02-19T07:17:50.243Z,200.00
2024-02-19T07:18:50.310Z,200.00
2024-02-19T07:19:50.295Z,200.00
2024-02-19T07:20:50.240Z,199.13
2024-02-19T07:21:50.292Z,200.18
2024-02-19T07:22:50.273Z,198.87
2024-02-19T07:23:50.292Z,200.00
2024-02-19T07:24:50.976Z,199.55
2024-02-19T07:25:51.662Z,197.18
2024-02-19T07:26:50.308Z,200.00
2024-02-19T07:27:50.417Z,199.70
2024-02-19T07:28:50.337Z,198.64
2024-02-19T07:29:50.328Z,199.21
2024-02-19T07:30:50.360Z,197.98
2024-02-19T07:31:50.329Z,198.60
2024-02-19T07:32:50.378Z,199.73
2024-02-19T07:33:50.439Z,200.00
2024-02-19T07:34:50.371Z,199.77
2024-02-19T07:35:50.427Z,197.71
2024-02-19T07:36:50.488Z,199.64
2024-02-19T07:37:50.320Z,200.00
2024-02-19T07:38:50.334Z,199.43
2024-02-19T07:39:50.836Z,199.36
2024-02-19T07:40:50.338Z,199.15
2024-02-19T07:41:50.318Z,199.62
2024-02-19T07:42:50.400Z,200.00
2024-02-19T07:43:50.337Z,200.00
2024-02-19T07:44:50.353Z,198.35
2024-02-19T07:45:50.353Z,199.64
2024-02-19T07:46:50.337Z,199.40
2024-02-19T07:47:50.409Z,199.00
2024-02-19T07:48:50.467Z,199.98
2024-02-19T07:49:50.380Z,197.20
2024-02-19T07:50:50.338Z,199.55
2024-02-19T07:51:50.364Z,200.00
2024-02-19T07:52:50.325Z,200.00
2024-02-19T07:53:50.329Z,194.28
2024-02-19T07:54:50.405Z,185.94
2024-02-19T07:55:50.415Z,173.22
2024-02-19T07:56:50.319Z,166.13
2024-02-19T07:57:50.380Z,160.23
2024-02-19T07:58:50.365Z,156.34
2024-02-19T07:59:50.327Z,157.75
2024-02-19T08:00:50.371Z,158.81
2024-02-19T08:01:50.495Z,159.11
2024-02-19T08:02:50.321Z,156.33
2024-02-19T08:03:50.416Z,157.60
2024-02-19T08:04:50.494Z,159.02
2024-02-19T08:05:50.361Z,160.06
2024-02-19T08:06:50.449Z,161.39
2024-02-19T08:07:50.426Z,160.80
2024-02-19T08:08:50.333Z,162.08
2024-02-19T08:09:50.370Z,161.97
2024-02-19T08:10:50.320Z,164.43
2024-02-19T08:11:50.436Z,164.01
2024-02-19T08:12:50.479Z,167.27
2024-02-19T08:13:50.407Z,167.40
2024-02-19T08:14:50.320Z,168.93
2024-02-19T08:15:50.348Z,170.16
2024-02-19T08:16:50.368Z,172.87
2024-02-19T08:17:50.453Z,172.34
2024-02-19T08:18:50.442Z,176.60
2024-02-19T08:19:50.360Z,176.81
2024-02-19T08:20:50.340Z,180.05
2024-02-19T08:21:50.492Z,182.71
2024-02-19T08:22:51.283Z,183.10
2024-02-19T08:23:50.345Z,185.66
2024-02-19T08:24:50.400Z,188.46
2024-02-19T08:25:50.346Z,192.00
2024-02-19T08:26:50.338Z,193.98
2024-02-19T08:27:51.928Z,197.49
2024-02-19T08:28:50.337Z,199.67
2024-02-19T08:29:50.346Z,199.60
2024-02-19T08:30:50.387Z,200.00
2024-02-19T08:31:50.363Z,199.23
2024-02-19T08:32:50.436Z,199.38
2024-02-19T08:33:50.518Z,198.68
2024-02-19T08:34:50.447Z,199.56
2024-02-19T08:35:50.383Z,199.01
2024-02-19T08:36:50.382Z,199.04
2024-02-19T08:37:50.366Z,197.91
2024-02-19T08:38:50.402Z,198.75
2024-02-19T08:39:50.449Z,199.11
2024-02-19T08:40:50.362Z,198.13
2024-02-19T08:41:50.350Z,200.00
2024-02-19T08:42:50.367Z,199.88
2024-02-19T08:43:50.359Z,199.74
2024-02-19T08:44:50.371Z,199.46
2024-02-19T08:45:50.422Z,199.84
2024-02-19T08:46:50.381Z,200.00
2024-02-19T08:47:50.382Z,200.00
2024-02-19T08:48:50.452Z,199.46
2024-02-19T08:49:50.488Z,199.15
2024-02-19T08:50:50.361Z,199.10
2024-02-19T08:51:50.380Z,199.05
2024-02-19T08:52:50.378Z,199.07
2024-02-19T08:53:56.710Z,199.86
2024-02-19T08:54:51.393Z,199.99
2024-02-19T08:55:50.438Z,200.31
2024-02-19T08:56:50.378Z,200.88
2024-02-19T08:57:50.428Z,201.75
2024-02-19T08:58:50.423Z,200.26
2024-02-19T08:59:50.367Z,189.78
2024-02-19T09:00:50.491Z,174.60
2024-02-19T09:01:50.473Z,159.68
2024-02-19T09:02:50.392Z,146.68
2024-02-19T09:03:50.498Z,135.36
2024-02-19T09:04:50.541Z,124.12
2024-02-19T09:05:50.403Z,115.35
2024-02-19T09:06:50.469Z,107.69
2024-02-19T09:07:50.505Z,100.59
2024-02-19T09:08:50.438Z,94.69
2024-02-19T09:09:50.539Z,90.58
2024-02-19T09:10:50.504Z,86.16
2024-02-19T09:11:50.618Z,84.29
2024-02-19T09:12:50.616Z,80.03
2024-02-19T09:13:50.651Z,75.92
2024-02-19T09:14:50.732Z,73.78
2024-02-19T09:15:50.836Z,69.92
2024-02-19T09:16:50.852Z,68.73
2024-02-19T09:17:50.880Z,66.49
2024-02-19T09:18:50.981Z,64.02
2024-02-19T09:19:50.947Z,63.51
2024-02-19T09:20:58.254Z,50.00
2024-02-19T09:21:58.243Z,50.00
2024-02-19T09:22:58.238Z,50.00
2024-02-19T09:23:58.234Z,50.00
2024-02-19T09:24:58.270Z,50.00
2024-02-19T09:25:58.248Z,52.08
2024-02-19T09:26:58.238Z,49.76
2024-02-19T09:27:58.322Z,50.74
2024-02-19T09:28:58.241Z,50.59
2024-02-19T09:29:58.248Z,50.19
2024-02-19T09:30:58.270Z,50.09
2024-02-19T09:31:58.246Z,50.06
2024-02-19T09:32:58.314Z,50.00
2024-02-19T09:33:58.540Z,50.60
2024-02-19T09:34:58.318Z,50.00
2024-02-19T09:35:58.246Z,50.42
2024-02-19T09:36:58.325Z,50.53
2024-02-19T09:37:58.260Z,50.81
2024-02-19T09:38:58.274Z,50.31
2024-02-19T09:39:58.314Z,50.00
2024-02-19T09:40:58.273Z,51.03
2024-02-19T09:41:58.272Z,50.19
2024-02-19T09:42:58.281Z,52.07
2024-02-19T09:43:58.305Z,50.63
2024-02-19T09:44:58.256Z,50.23
2024-02-19T09:45:58.323Z,51.36
2024-02-19T09:46:58.285Z,51.01
2024-02-19T09:47:58.447Z,50.58
2024-02-19T09:48:58.446Z,51.56
2024-02-19T09:49:58.324Z,52.13
2024-02-19T09:50:58.278Z,51.94
2024-02-19T09:51:58.348Z,53.04
2024-02-19T09:52:58.280Z,50.58
2024-02-19T09:53:58.288Z,50.78
2024-02-19T09:54:58.376Z,51.09
2024-02-19T09:55:58.285Z,51.34
2024-02-19T09:56:58.311Z,52.00
2024-02-19T09:57:58.304Z,54.92
2024-02-19T09:58:58.287Z,55.65
2024-02-19T09:59:58.296Z,58.79
2024-02-19T10:00:58.334Z,59.93
2024-02-19T10:01:58.342Z,60.89
2024-02-19T10:02:58.309Z,60.65
2024-02-19T10:03:58.411Z,58.10
2024-02-19T10:04:59.400Z,57.60
2024-02-19T10:05:58.467Z,54.32
2024-02-19T10:06:58.621Z,51.26
2024-02-19T10:07:58.657Z,50.00
2024-02-19T10:08:58.558Z,52.52
2024-02-19T10:09:58.666Z,50.36
2024-02-19T10:10:58.616Z,55.62
2024-02-19T10:11:58.658Z,53.35
2024-02-19T10:12:58.663Z,53.04
2024-02-19T10:13:58.670Z,53.04
2024-02-19T10:14:58.697Z,54.18
2024-02-19T10:16:00.421Z,55.39
2024-02-19T10:16:58.743Z,55.49
2024-02-19T10:17:58.808Z,58.66
2024-02-19T10:18:58.964Z,59.34
2024-02-19T10:19:58.966Z,60.64
2024-02-19T10:20:58.977Z,61.70
2024-02-19T10:21:59.086Z,62.31
2024-02-19T10:22:59.115Z,62.03
2024-02-19T10:23:59.201Z,65.69
2024-02-19T10:24:59.248Z,68.00
2024-02-19T10:25:59.288Z,67.32
2024-02-19T10:26:59.335Z,68.52
2024-02-19T10:27:59.403Z,69.52
2024-02-19T10:28:59.409Z,71.97
2024-02-19T10:29:59.456Z,72.84
2024-02-19T10:30:59.520Z,72.55
2024-02-19T10:31:59.543Z,76.26
2024-02-19T10:32:59.632Z,77.77
2024-02-19T10:33:59.816Z,79.74
2024-02-19T10:34:59.710Z,82.62
2024-02-19T10:35:59.722Z,82.19
2024-02-19T10:36:59.815Z,86.47
2024-02-19T10:37:59.754Z,85.69
2024-02-19T10:38:59.785Z,88.37
2024-02-19T10:39:59.871Z,91.28
2024-02-19T10:40:59.847Z,93.59
2024-02-19T10:41:59.897Z,94.16
2024-02-19T10:42:59.944Z,97.46
2024-02-19T10:43:59.959Z,100.04
2024-02-19T10:44:59.960Z,100.22
2024-02-19T10:46:00.003Z,102.53
2024-02-19T10:47:00.943Z,103.08
2024-02-19T10:48:00.188Z,103.01
2024-02-19T10:49:00.224Z,104.10
2024-02-19T10:50:00.966Z,103.47
2024-02-19T10:51:00.112Z,102.09
2024-02-19T10:52:00.207Z,98.60
2024-02-19T10:53:00.200Z,96.96
2024-02-19T10:54:00.272Z,94.61
2024-02-19T10:55:09.585Z,93.13
2024-02-19T10:56:04.418Z,93.05
2024-02-19T10:57:00.348Z,92.04
2024-02-19T10:58:00.395Z,89.51
2024-02-19T10:59:00.348Z,88.66
2024-02-19T11:00:00.349Z,83.64
2024-02-19T11:01:00.385Z,81.54
2024-02-19T11:02:00.403Z,79.63
2024-02-19T11:03:00.345Z,76.46
2024-02-19T11:04:00.389Z,75.18
2024-02-19T11:05:00.472Z,74.71
2024-02-19T11:06:00.672Z,73.38
2024-02-19T11:07:00.624Z,72.39
2024-02-19T11:08:00.662Z,69.75
2024-02-19T11:09:00.714Z,68.33
2024-02-19T11:10:00.903Z,68.14
2024-02-19T11:11:00.930Z,64.08
2024-02-19T11:12:01.179Z,63.53
2024-02-19T11:13:01.974Z,63.31
2024-02-19T11:14:01.064Z,62.92
2024-02-19T11:15:01.133Z,62.06
2024-02-19T11:16:01.230Z,61.65
2024-02-19T11:17:01.262Z,60.37
2024-02-19T11:18:01.359Z,59.88
2024-02-19T11:19:01.553Z,56.47
2024-02-19T11:20:01.525Z,56.81
2024-02-19T11:21:01.422Z,54.16
2024-02-19T11:22:01.535Z,54.00
2024-02-19T11:23:01.503Z,55.38
2024-02-19T11:24:01.524Z,52.64
2024-02-19T11:25:01.574Z,54.16
2024-02-19T11:26:01.546Z,53.13
2024-02-19T11:27:01.567Z,50.00
2024-02-19T11:28:01.663Z,52.00
2024-02-19T11:29:01.612Z,52.56
2024-02-19T11:30:01.703Z,52.52
2024-02-19T11:31:01.686Z,50.35
2024-02-19T11:32:01.682Z,50.34
2024-02-19T11:33:01.748Z,50.50
2024-02-19T11:34:01.703Z,51.77
2024-02-19T11:35:01.721Z,51.22
2024-02-19T11:36:01.675Z,50.94
2024-02-19T11:37:01.747Z,50.36
2024-02-19T11:38:01.711Z,52.01
2024-02-19T11:39:01.755Z,50.19
2024-02-19T11:40:01.780Z,50.00
2024-02-19T11:41:01.757Z,50.99
2024-02-19T11:42:01.776Z,50.54
2024-02-19T11:43:01.855Z,50.00
2024-02-19T11:44:01.827Z,51.78
2024-02-19T11:45:01.870Z,50.76
2024-02-19T11:46:01.904Z,52.39
2024-02-19T11:47:01.920Z,53.34
2024-02-19T11:48:02.160Z,54.42
2024-02-19T11:49:02.034Z,58.04
2024-02-19T11:50:02.183Z,56.91
2024-02-19T11:51:02.025Z,58.62
2024-02-19T11:52:08.255Z,60.13
2024-02-19T11:53:03.111Z,60.24
2024-02-19T11:54:02.048Z,60.47
2024-02-19T11:55:02.082Z,60.76
2024-02-19T11:56:02.024Z,60.23
2024-02-19T11:57:02.044Z,60.74
2024-02-19T11:58:03.051Z,62.45
2024-02-19T11:59:02.073Z,65.52
2024-02-19T12:00:02.053Z,62.60
2024-02-19T12:01:02.175Z,64.20
2024-02-19T12:02:02.102Z,64.64
2024-02-19T12:03:02.038Z,63.38
2024-02-19T12:04:02.118Z,63.93
2024-02-19T12:05:02.087Z,65.83
2024-02-19T12:06:02.102Z,66.81
2024-02-19T12:07:02.124Z,64.38
2024-02-19T12:08:02.115Z,64.91
2024-02-19T12:09:02.065Z,61.80
2024-02-19T12:10:02.070Z,64.51
2024-02-19T12:11:02.207Z,63.28
2024-02-19T12:12:02.144Z,62.60
2024-02-19T12:13:02.146Z,59.59
2024-02-19T12:14:02.060Z,56.50
2024-02-19T12:15:02.113Z,55.97
2024-02-19T12:16:02.130Z,57.27
2024-02-19T12:17:02.073Z,55.99
2024-02-19T12:18:02.218Z,54.36
2024-02-19T12:19:02.333Z,55.70
2024-02-19T12:20:02.223Z,53.94
2024-02-19T12:21:02.066Z,53.72
2024-02-19T12:22:02.124Z,52.05
2024-02-19T12:23:02.112Z,54.72
2024-02-19T12:24:02.133Z,54.77
2024-02-19T12:25:02.213Z,54.92
2024-02-19T12:26:02.206Z,56.55
2024-02-19T12:27:02.248Z,59.06
2024-02-19T12:28:02.295Z,58.93
2024-02-19T12:29:02.330Z,60.10
2024-02-19T12:30:02.352Z,58.34
2024-02-19T12:31:02.395Z,59.23
2024-02-19T12:32:02.400Z,58.26
2024-02-19T12:33:02.502Z,56.97
2024-02-19T12:34:02.570Z,56.14
2024-02-19T12:35:02.639Z,55.31
2024-02-19T12:36:02.591Z,52.47
2024-02-19T12:37:02.669Z,54.29
2024-02-19T12:38:02.621Z,54.17
2024-02-19T12:39:02.625Z,54.97
2024-02-19T12:40:02.755Z,54.67
2024-02-19T12:41:02.704Z,59.96
2024-02-19T12:42:02.726Z,57.06
2024-02-19T12:43:02.829Z,58.08
2024-02-19T12:44:02.793Z,57.17
2024-02-19T12:45:02.885Z,59.73
2024-02-19T12:46:03.001Z,57.02
2024-02-19T12:47:02.896Z,59.14
2024-02-19T12:48:03.092Z,59.88
2024-02-19T12:49:03.158Z,61.12